Time,TemperatureF,DewpointF,PressureIn,WindDirection,WindDirectionDegrees,WindSpeedMPH,WindSpeedGustMPH,Humidity,HourlyPrecipIn,Conditions,Clouds,dailyrainin,SoftwareType,DateUTC
2013-12-02 00:03:00,55.0,51.5,29.62,North,358,6.7,6.9,88,0.00,,,0.00,WeatherDisplay:10.37,2013-12-02 06:03:00,
2013-12-02 00:08:00,54.7,51.2,29.62,North,358,6.7,6.9,88,0.00,,,0.00,WeatherDisplay:10.37,2013-12-02 06:08:00,
2013-12-02 00:13:00,54.5,51.0,29.62,North,358,6.7,6.9,88,0.00,,,0.00,WeatherDisplay:10.37,2013-12-02 06:13:00,
2013-12-02 00:18:00,54.5,51.0,29.62,North,358,6.7,6.9,88,0.00,,,0.00,WeatherDisplay:10.37,2013-12-02 06:18:00,
2013-12-02 00:23:00,54.5,50.7,29.62,North,358,6.7,6.9,87,0.00,,,0.00,WeatherDisplay:10.37,2013-12-02 06:23:00,
2013-12-02 00:28:00,54.5,50.7,29.62,North,358,6.7,6.9,87,0.00,,,0.00,WeatherDisplay:10.37,2013-12-02 06:28:00,
2013-12-02 00:33:00,54.3,50.5,29.62,North,358,6.7,6.9,87,0.00,,,0.00,WeatherDisplay:10.37,2013-12-02 06:33:00,
2013-12-02 00:38:00,54.3,50.5,29.62,North,358,6.7,6.9,87,0.00,,,0.00,WeatherDisplay:10.37,2013-12-02 06:38:00,
2013-12-02 00:43:00,54.3,50.5,29.62,North,358,6.7,6.9,87,0.00,,,0.00,WeatherDisplay:10.37,2013-12-02 06:43:00,
2013-12-02 00:48:00,54.1,50.4,29.62,North,358,6.7,6.9,87,0.00,,,0.00,WeatherDisplay:10.37,2013-12-02 06:48:00,
2013-12-02 00:53:00,54.1,50.4,29.61,North,358,6.7,6.9,87,0.00,,,0.00,WeatherDisplay:10.37,2013-12-02 06:53:00,
2013-12-02 00:58:00,54.0,50.2,29.61,North,358,6.7,6.9,87,0.00,,,0.00,WeatherDisplay:10.37,2013-12-02 06:58:00,
2013-12-02 01:03:00,53.6,49.8,29.61,North,358,6.7,6.9,87,0.00,,,0.00,WeatherDisplay:10.37,2013-12-02 07:03:00,
2013-12-02 01:08:00,53.1,49.0,29.61,North,358,6.7,6.9,86,0.00,,,0.00,WeatherDisplay:10.37,2013-12-02 07:08:00,
2013-12-02 01:13:00,52.5,48.5,29.60,North,358,6.7,6.9,86,0.00,,,0.00,WeatherDisplay:10.37,2013-12-02 07:13:00,
2013-12-02 01:18:00,52.3,48.3,29.61,North,358,6.7,6.9,86,0.00,,,0.00,WeatherDisplay:10.37,2013-12-02 07:18:00,
2013-12-02 01:23:00,52.3,48.3,29.61,North,358,6.7,6.9,86,0.00,,,0.00,WeatherDisplay:10.37,2013-12-02 07:23:00,
2013-12-02 01:28:00,52.5,48.5,29.61,North,358,6.7,6.9,86,0.00,,,0.00,WeatherDisplay:10.37,2013-12-02 07:28:00,
2013-12-02 01:33:00,52.5,48.8,29.60,North,358,6.7,6.9,87,0.00,,,0.00,WeatherDisplay:10.37,2013-12-02 07:33:00,
2013-12-02 01:38:00,52.5,48.8,29.60,North,358,6.7,6.9,87,0.00,,,0.00,WeatherDisplay:10.37,2013-12-02 07:38:00,
2013-12-02 01:43:00,52.5,48.5,29.60,North,358,6.7,6.9,86,0.00,,,0.00,WeatherDisplay:10.37,2013-12-02 07:43:00,
2013-12-02 01:48:00,52.3,48.3,29.60,North,358,6.7,6.9,86,0.00,,,0.00,WeatherDisplay:10.37,2013-12-02 07:48:00,
2013-12-02 01:53:00,52.2,48.1,29.60,North,358,6.7,6.9,86,0.00,,,0.00,WeatherDisplay:10.37,2013-12-02 07:53:00,
2013-12-02 01:58:00,52.0,47.6,29.60,North,358,6.7,6.9,85,0.00,,,0.00,WeatherDisplay:10.37,2013-12-02 07:58:00,
2013-12-02 02:03:00,51.8,47.4,29.60,North,358,6.7,6.9,85,0.00,BKN,,0.00,WeatherDisplay:10.37,2013-12-02 08:03:00,
2013-12-02 02:08:00,51.8,47.4,29.59,North,358,6.7,6.9,85,0.00,BKN,,0.00,WeatherDisplay:10.37,2013-12-02 08:08:00,
2013-12-02 02:13:00,51.6,46.9,29.59,North,358,6.7,6.9,84,0.00,BKN,,0.00,WeatherDisplay:10.37,2013-12-02 08:13:00,
2013-12-02 02:19:00,51.6,46.9,29.59,North,358,6.7,6.9,84,0.00,BKN,,0.00,WeatherDisplay:10.37,2013-12-02 08:19:00,
2013-12-02 02:24:00,51.4,46.8,29.59,North,358,6.7,6.9,84,0.00,BKN,,0.00,WeatherDisplay:10.37,2013-12-02 08:24:00,
2013-12-02 02:29:00,51.4,46.8,29.59,North,358,6.7,6.9,84,0.00,BKN,,0.00,WeatherDisplay:10.37,2013-12-02 08:29:00,
2013-12-02 02:34:00,51.3,46.3,29.59,North,358,6.7,6.9,83,0.00,BKN,,0.00,WeatherDisplay:10.37,2013-12-02 08:34:00,
2013-12-02 02:39:00,50.4,45.4,29.59,North,358,6.7,6.9,83,0.00,BKN,,0.00,WeatherDisplay:10.37,2013-12-02 08:39:00,
2013-12-02 02:44:00,50.0,45.7,29.58,North,358,6.7,6.9,85,0.00,BKN,,0.00,WeatherDisplay:10.37,2013-12-02 08:44:00,
2013-12-02 02:49:00,49.6,45.6,29.58,North,358,6.7,6.9,86,0.00,BKN,,0.00,WeatherDisplay:10.37,2013-12-02 08:49:00,
2013-12-02 02:54:00,49.5,45.4,29.58,North,358,6.7,6.9,86,0.00,BKN,,0.00,WeatherDisplay:10.37,2013-12-02 08:54:00,
2013-12-02 02:59:00,49.5,45.8,29.58,North,358,6.7,6.9,87,0.00,BKN,,0.00,WeatherDisplay:10.37,2013-12-02 08:59:00,
2013-12-02 03:04:00,49.5,46.1,29.58,North,358,6.7,6.9,88,0.00,OVC,,0.00,WeatherDisplay:10.37,2013-12-02 09:04:00,
2013-12-02 03:09:00,49.6,46.2,29.58,North,358,6.7,6.9,88,0.00,OVC,,0.00,WeatherDisplay:10.37,2013-12-02 09:09:00,
2013-12-02 03:14:00,49.6,46.2,29.58,North,358,6.7,6.9,88,0.00,OVC,,0.00,WeatherDisplay:10.37,2013-12-02 09:14:00,
2013-12-02 03:19:00,49.6,46.2,29.58,North,358,6.7,6.9,88,0.00,OVC,,0.00,WeatherDisplay:10.37,2013-12-02 09:19:00,
2013-12-02 03:24:00,49.8,46.4,29.57,North,358,6.7,6.9,88,0.00,OVC,,0.00,WeatherDisplay:10.37,2013-12-02 09:24:00,
2013-12-02 03:29:00,49.6,46.2,29.57,North,358,6.7,6.9,88,0.00,OVC,,0.00,WeatherDisplay:10.37,2013-12-02 09:29:00,
2013-12-02 03:34:00,49.1,45.7,29.57,North,358,6.7,6.9,88,0.00,OVC,,0.00,WeatherDisplay:10.37,2013-12-02 09:34:00,
2013-12-02 03:39:00,48.9,45.5,29.57,North,358,6.7,6.9,88,0.00,OVC,,0.00,WeatherDisplay:10.37,2013-12-02 09:39:00,
2013-12-02 03:44:00,48.9,45.5,29.57,North,358,6.7,6.9,88,0.00,OVC,,0.00,WeatherDisplay:10.37,2013-12-02 09:44:00,
2013-12-02 03:49:00,49.1,45.7,29.57,North,358,6.7,6.9,88,0.00,OVC,,0.00,WeatherDisplay:10.37,2013-12-02 09:49:00,
2013-12-02 03:54:00,48.9,45.5,29.56,North,358,6.7,6.9,88,0.00,OVC,,0.00,WeatherDisplay:10.37,2013-12-02 09:54:00,
2013-12-02 03:59:00,48.9,45.5,29.56,North,358,6.7,6.9,88,0.00,OVC,,0.00,WeatherDisplay:10.37,2013-12-02 09:59:00,
2013-12-02 04:04:00,48.9,45.5,29.56,North,358,6.7,6.9,88,0.00,OVC,,0.00,WeatherDisplay:10.37,2013-12-02 10:04:00,
2013-12-02 04:09:00,48.7,45.3,29.56,North,358,6.7,6.9,88,0.00,OVC,,0.00,WeatherDisplay:10.37,2013-12-02 10:09:00,
2013-12-02 04:14:00,48.7,45.3,29.56,North,358,6.7,6.9,88,0.00,OVC,,0.00,WeatherDisplay:10.37,2013-12-02 10:14:00,
2013-12-02 04:19:00,48.7,45.3,29.56,North,358,6.7,6.9,88,0.00,OVC,,0.00,WeatherDisplay:10.37,2013-12-02 10:19:00,
2013-12-02 04:24:00,48.9,45.5,29.56,North,358,6.7,6.9,88,0.00,OVC,,0.00,WeatherDisplay:10.37,2013-12-02 10:24:00,
2013-12-02 04:29:00,48.9,45.5,29.56,North,358,6.7,6.9,88,0.00,OVC,,0.00,WeatherDisplay:10.37,2013-12-02 10:29:00,
2013-12-02 04:34:00,48.7,45.3,29.56,North,358,6.7,6.9,88,0.00,OVC,,0.00,WeatherDisplay:10.37,2013-12-02 10:34:00,
2013-12-02 04:39:00,48.6,45.2,29.56,North,358,6.7,6.9,88,0.00,OVC,,0.00,WeatherDisplay:10.37,2013-12-02 10:39:00,
2013-12-02 04:44:00,48.6,45.2,29.55,North,358,6.7,6.9,88,0.00,OVC,,0.00,WeatherDisplay:10.37,2013-12-02 10:44:00,
2013-12-02 04:49:00,48.2,44.8,29.55,North,358,6.7,6.9,88,0.00,OVC,,0.00,WeatherDisplay:10.37,2013-12-02 10:49:00,
2013-12-02 04:54:00,48.0,44.6,29.55,North,358,6.7,6.9,88,0.00,OVC,,0.00,WeatherDisplay:10.37,2013-12-02 10:54:00,
2013-12-02 04:59:00,47.8,44.5,29.55,North,358,6.7,6.9,88,0.00,OVC,,0.00,WeatherDisplay:10.37,2013-12-02 10:59:00,
2013-12-02 05:04:00,48.0,44.6,29.55,North,358,6.7,6.9,88,0.00,,,0.01,WeatherDisplay:10.37,2013-12-02 11:04:00,
2013-12-02 05:09:00,48.0,44.6,29.55,North,358,6.7,6.9,88,0.01,RA,,0.01,WeatherDisplay:10.37,2013-12-02 11:09:00,
2013-12-02 05:14:00,47.8,44.5,29.54,North,358,6.7,6.9,88,0.01,RA,,0.01,WeatherDisplay:10.37,2013-12-02 11:14:00,
2013-12-02 05:19:00,47.7,44.3,29.55,North,358,6.7,6.9,88,0.01,CLR,,0.01,WeatherDisplay:10.37,2013-12-02 11:19:00,
2013-12-02 05:24:00,47.7,44.6,29.55,North,358,6.7,6.9,89,0.01,,,0.01,WeatherDisplay:10.37,2013-12-02 11:24:00,
2013-12-02 05:29:00,47.5,44.4,29.55,North,358,6.7,6.9,89,0.01,,,0.01,WeatherDisplay:10.37,2013-12-02 11:29:00,
2013-12-02 05:34:00,47.7,44.6,29.54,North,358,6.7,6.9,89,0.01,,,0.01,WeatherDisplay:10.37,2013-12-02 11:34:00,
2013-12-02 05:39:00,47.8,44.8,29.54,North,358,6.7,6.9,89,0.01,,,0.01,WeatherDisplay:10.37,2013-12-02 11:39:00,
2013-12-02 05:44:00,47.8,44.8,29.54,North,358,6.7,6.9,89,0.01,,,0.01,WeatherDisplay:10.37,2013-12-02 11:44:00,
2013-12-02 05:49:00,47.7,44.6,29.55,North,358,6.7,6.9,89,0.01,,,0.01,WeatherDisplay:10.37,2013-12-02 11:49:00,
2013-12-02 05:54:00,47.7,44.6,29.55,North,358,6.7,6.9,89,0.01,,,0.01,WeatherDisplay:10.37,2013-12-02 11:54:00,
2013-12-02 05:59:00,47.7,44.6,29.55,North,358,6.7,6.9,89,0.01,,,0.01,WeatherDisplay:10.37,2013-12-02 11:59:00,
2013-12-02 06:04:00,47.7,44.3,29.55,North,358,6.7,6.9,88,0.01,,,0.01,WeatherDisplay:10.37,2013-12-02 12:04:00,
2013-12-02 06:09:00,47.7,44.3,29.55,North,358,6.7,6.9,88,0.00,,,0.01,WeatherDisplay:10.37,2013-12-02 12:09:00,
2013-12-02 06:14:00,47.5,44.1,29.55,North,358,6.7,6.9,88,0.00,,,0.01,WeatherDisplay:10.37,2013-12-02 12:14:00,
2013-12-02 06:19:00,47.3,43.9,29.55,North,358,6.7,6.9,88,0.00,,,0.01,WeatherDisplay:10.37,2013-12-02 12:19:00,
2013-12-02 06:24:00,47.1,43.4,29.55,North,358,6.7,6.9,87,0.00,,,0.01,WeatherDisplay:10.37,2013-12-02 12:24:00,
2013-12-02 06:29:00,46.8,42.8,29.55,North,358,6.7,6.9,86,0.00,,,0.01,WeatherDisplay:10.37,2013-12-02 12:29:00,
2013-12-02 06:34:00,46.6,42.6,29.55,North,358,6.7,6.9,86,0.00,,,0.01,WeatherDisplay:10.37,2013-12-02 12:34:00,
2013-12-02 06:39:00,46.4,42.1,29.55,North,358,6.7,6.9,85,0.00,,,0.01,WeatherDisplay:10.37,2013-12-02 12:39:00,
2013-12-02 06:44:00,46.4,42.1,29.55,North,358,6.7,6.9,85,0.00,,,0.01,WeatherDisplay:10.37,2013-12-02 12:44:00,
2013-12-02 06:49:00,46.2,42.0,29.55,North,358,6.7,6.9,85,0.00,,,0.01,WeatherDisplay:10.37,2013-12-02 12:49:00,
2013-12-02 06:54:00,46.0,41.8,29.56,North,358,6.7,6.9,85,0.00,,,0.01,WeatherDisplay:10.37,2013-12-02 12:54:00,
2013-12-02 06:59:00,45.7,41.4,29.56,North,358,6.7,6.9,85,0.00,,,0.01,WeatherDisplay:10.37,2013-12-02 12:59:00,
2013-12-02 07:04:00,45.7,41.1,29.56,North,358,6.7,6.9,84,0.00,,,0.01,WeatherDisplay:10.37,2013-12-02 13:04:00,
2013-12-02 07:09:00,45.5,40.9,29.56,North,358,6.7,6.9,84,0.00,,,0.01,WeatherDisplay:10.37,2013-12-02 13:09:00,
2013-12-02 07:14:00,45.3,40.8,29.56,North,358,6.7,6.9,84,0.00,,,0.01,WeatherDisplay:10.37,2013-12-02 13:14:00,
2013-12-02 07:19:00,45.1,40.3,29.56,North,358,6.7,6.9,83,0.00,,,0.01,WeatherDisplay:10.37,2013-12-02 13:19:00,
2013-12-02 07:24:00,45.1,40.3,29.56,North,358,6.7,6.9,83,0.00,,,0.01,WeatherDisplay:10.37,2013-12-02 13:24:00,
2013-12-02 07:29:00,45.0,40.1,29.56,North,358,6.7,6.9,83,0.00,,,0.01,WeatherDisplay:10.37,2013-12-02 13:29:00,
2013-12-02 07:34:00,45.0,40.1,29.56,North,358,6.7,6.9,83,0.00,,,0.01,WeatherDisplay:10.37,2013-12-02 13:34:00,
2013-12-02 07:39:00,45.0,40.1,29.56,North,358,6.7,6.9,83,0.00,,,0.01,WeatherDisplay:10.37,2013-12-02 13:39:00,
2013-12-02 07:44:00,45.0,40.1,29.56,North,358,6.7,6.9,83,0.00,,,0.01,WeatherDisplay:10.37,2013-12-02 13:44:00,
2013-12-02 07:49:00,44.8,39.9,29.56,North,358,6.7,6.9,83,0.00,,,0.01,WeatherDisplay:10.37,2013-12-02 13:49:00,
2013-12-02 07:54:00,44.8,39.9,29.56,North,358,6.7,6.9,83,0.00,,,0.01,WeatherDisplay:10.37,2013-12-02 13:54:00,
2013-12-02 08:00:00,45.0,40.1,29.55,North,358,6.7,6.9,83,0.00,,,0.01,WeatherDisplay:10.37,2013-12-02 14:00:00,
2013-12-02 08:05:00,45.0,40.1,29.55,North,358,6.7,6.9,83,0.00,CLR,,0.01,WeatherDisplay:10.37,2013-12-02 14:05:00,
2013-12-02 08:10:00,45.3,40.8,29.55,North,358,6.7,6.9,84,0.00,CLR,,0.01,WeatherDisplay:10.37,2013-12-02 14:10:00,
2013-12-02 08:15:00,45.5,40.9,29.55,North,358,6.7,6.9,84,0.00,CLR,,0.01,WeatherDisplay:10.37,2013-12-02 14:15:00,
2013-12-02 08:20:00,45.5,41.3,29.55,North,358,6.7,6.9,85,0.00,CLR,,0.01,WeatherDisplay:10.37,2013-12-02 14:20:00,
2013-12-02 08:25:00,45.7,41.4,29.55,North,358,6.7,6.9,85,0.00,CLR,,0.01,WeatherDisplay:10.37,2013-12-02 14:25:00,
2013-12-02 08:30:00,46.0,41.8,29.55,North,358,6.7,6.9,85,0.00,CLR,,0.01,WeatherDisplay:10.37,2013-12-02 14:30:00,
2013-12-02 08:35:00,46.4,42.1,29.54,North,358,6.7,6.9,85,0.00,CLR,,0.01,WeatherDisplay:10.37,2013-12-02 14:35:00,
2013-12-02 08:40:00,46.4,42.1,29.54,North,358,6.7,6.9,85,0.00,CLR,,0.01,WeatherDisplay:10.37,2013-12-02 14:40:00,
2013-12-02 08:45:00,46.8,42.8,29.55,North,358,6.7,6.9,86,0.00,CLR,,0.01,WeatherDisplay:10.37,2013-12-02 14:45:00,
2013-12-02 08:50:00,47.1,43.1,29.55,North,358,6.7,6.9,86,0.00,CLR,,0.01,WeatherDisplay:10.37,2013-12-02 14:50:00,
2013-12-02 08:55:00,47.7,44.3,29.55,North,358,6.7,6.9,88,0.00,CLR,,0.01,WeatherDisplay:10.37,2013-12-02 14:55:00,
2013-12-02 09:00:00,48.2,45.1,29.55,North,358,6.7,6.9,89,0.00,CLR,,0.01,WeatherDisplay:10.37,2013-12-02 15:00:00,
2013-12-02 09:05:00,48.6,45.5,29.54,North,358,6.7,6.9,89,0.00,BKN,,0.01,WeatherDisplay:10.37,2013-12-02 15:05:00,
2013-12-02 09:10:00,49.1,46.0,29.54,North,358,6.7,6.9,89,0.00,BKN,,0.01,WeatherDisplay:10.37,2013-12-02 15:10:00,
2013-12-02 09:15:00,49.5,46.4,29.54,North,358,6.7,6.9,89,0.00,BKN,,0.01,WeatherDisplay:10.37,2013-12-02 15:15:00,
2013-12-02 09:20:00,49.8,47.0,29.55,North,358,6.7,6.9,90,0.00,BKN,,0.01,WeatherDisplay:10.37,2013-12-02 15:20:00,
2013-12-02 09:25:00,50.0,47.2,29.55,North,358,6.7,6.9,90,0.00,BKN,,0.01,WeatherDisplay:10.37,2013-12-02 15:25:00,
2013-12-02 09:30:00,50.4,47.2,29.55,North,358,6.7,6.9,89,0.00,BKN,,0.01,WeatherDisplay:10.37,2013-12-02 15:30:00,
2013-12-02 09:35:00,50.7,47.6,29.55,North,358,6.7,6.9,89,0.00,BKN,,0.01,WeatherDisplay:10.37,2013-12-02 15:35:00,
2013-12-02 09:40:00,50.7,47.6,29.55,North,358,6.7,6.9,89,0.00,BKN,,0.01,WeatherDisplay:10.37,2013-12-02 15:40:00,
2013-12-02 09:45:00,51.1,48.0,29.55,North,358,6.7,6.9,89,0.00,BKN,,0.01,WeatherDisplay:10.37,2013-12-02 15:45:00,
2013-12-02 09:50:00,51.3,48.1,29.55,North,358,6.7,6.9,89,0.00,BKN,,0.01,WeatherDisplay:10.37,2013-12-02 15:50:00,
2013-12-02 09:55:00,51.6,48.8,29.56,North,358,6.7,6.9,90,0.00,BKN,,0.01,WeatherDisplay:10.37,2013-12-02 15:55:00,
2013-12-02 10:00:00,52.0,49.1,29.56,North,358,6.7,6.9,90,0.00,BKN,,0.01,WeatherDisplay:10.37,2013-12-02 16:00:00,
2013-12-02 10:05:00,52.2,49.3,29.55,North,358,6.7,6.9,90,0.00,OVC,,0.01,WeatherDisplay:10.37,2013-12-02 16:05:00,
2013-12-02 10:10:00,52.5,49.7,29.55,North,358,6.7,6.9,90,0.00,OVC,,0.01,WeatherDisplay:10.37,2013-12-02 16:10:00,
2013-12-02 10:15:00,53.1,50.2,29.55,North,358,6.7,6.9,90,0.00,OVC,,0.01,WeatherDisplay:10.37,2013-12-02 16:15:00,
2013-12-02 10:20:00,53.4,50.6,29.55,North,358,6.7,6.9,90,0.00,OVC,,0.01,WeatherDisplay:10.37,2013-12-02 16:20:00,
2013-12-02 10:25:00,53.6,50.4,29.55,North,358,6.7,6.9,89,0.00,OVC,,0.01,WeatherDisplay:10.37,2013-12-02 16:25:00,
2013-12-02 10:30:00,54.1,51.0,29.55,North,358,6.7,6.9,89,0.00,OVC,,0.01,WeatherDisplay:10.37,2013-12-02 16:30:00,
2013-12-02 10:35:00,54.3,51.1,29.54,North,358,6.7,6.9,89,0.00,OVC,,0.01,WeatherDisplay:10.37,2013-12-02 16:35:00,
2013-12-02 10:40:00,54.9,51.4,29.54,North,358,6.7,6.9,88,0.00,OVC,,0.01,WeatherDisplay:10.37,2013-12-02 16:40:00,
2013-12-02 10:45:00,55.0,51.2,29.54,North,358,6.7,6.9,87,0.00,OVC,,0.01,WeatherDisplay:10.37,2013-12-02 16:45:00,
2013-12-02 10:50:00,55.6,51.8,29.53,North,358,6.7,6.9,87,0.00,OVC,,0.01,WeatherDisplay:10.37,2013-12-02 16:50:00,
2013-12-02 10:55:00,55.9,51.8,29.54,North,358,6.7,6.9,86,0.00,OVC,,0.01,WeatherDisplay:10.37,2013-12-02 16:55:00,
2013-12-02 11:00:00,56.3,52.2,29.53,North,358,6.7,6.9,86,0.00,OVC,,0.01,WeatherDisplay:10.37,2013-12-02 17:00:00,
2013-12-02 11:05:00,56.8,52.4,29.53,North,358,6.7,6.9,85,0.00,SCT,,0.01,WeatherDisplay:10.37,2013-12-02 17:05:00,
2013-12-02 11:10:00,57.2,52.7,29.52,North,358,6.7,6.9,85,0.00,SCT,,0.01,WeatherDisplay:10.37,2013-12-02 17:10:00,
2013-12-02 11:15:00,57.6,53.1,29.52,North,358,6.7,6.9,85,0.00,SCT,,0.01,WeatherDisplay:10.37,2013-12-02 17:15:00,
2013-12-02 11:20:00,58.1,53.3,29.52,North,358,6.7,6.9,84,0.00,SCT,,0.01,WeatherDisplay:10.37,2013-12-02 17:20:00,
2013-12-02 11:25:00,58.6,53.8,29.52,North,358,6.7,6.9,84,0.00,SCT,,0.01,WeatherDisplay:10.37,2013-12-02 17:25:00,
2013-12-02 11:30:00,58.8,53.7,29.52,North,358,6.7,6.9,83,0.00,SCT,,0.01,WeatherDisplay:10.37,2013-12-02 17:30:00,
2013-12-02 11:35:00,59.2,53.7,29.51,North,358,6.7,6.9,82,0.00,SCT,,0.01,WeatherDisplay:10.37,2013-12-02 17:35:00,
2013-12-02 11:40:00,59.5,53.7,29.51,North,358,6.7,6.9,81,0.00,SCT,,0.01,WeatherDisplay:10.37,2013-12-02 17:40:00,
2013-12-02 11:45:00,60.1,53.9,29.51,North,358,6.7,6.9,80,0.00,SCT,,0.01,WeatherDisplay:10.37,2013-12-02 17:45:00,
2013-12-02 11:50:00,60.4,53.9,29.51,North,358,6.7,6.9,79,0.00,SCT,,0.01,WeatherDisplay:10.37,2013-12-02 17:50:00,
2013-12-02 11:55:00,60.8,53.9,29.50,North,358,6.7,6.9,78,0.00,SCT,,0.01,WeatherDisplay:10.37,2013-12-02 17:55:00,
2013-12-02 12:00:00,61.0,53.4,29.50,North,358,6.7,6.9,76,0.00,SCT,,0.01,WeatherDisplay:10.37,2013-12-02 18:00:00,
2013-12-02 12:05:00,61.5,53.9,29.49,North,358,6.7,6.9,76,0.00,CLR,,0.01,WeatherDisplay:10.37,2013-12-02 18:05:00,
2013-12-02 12:10:00,61.7,53.7,29.49,North,358,6.7,6.9,75,0.00,CLR,,0.01,WeatherDisplay:10.37,2013-12-02 18:10:00,
2013-12-02 12:15:00,62.1,54.0,29.49,North,358,6.7,6.9,75,0.00,CLR,,0.01,WeatherDisplay:10.37,2013-12-02 18:15:00,
2013-12-02 12:20:00,62.2,54.2,29.49,North,358,6.7,6.9,75,0.00,CLR,,0.01,WeatherDisplay:10.37,2013-12-02 18:20:00,
2013-12-02 12:25:00,62.6,53.8,29.48,North,358,6.7,6.9,73,0.00,CLR,,0.01,WeatherDisplay:10.37,2013-12-02 18:25:00,
2013-12-02 12:30:00,62.8,54.0,29.48,North,358,6.7,6.9,73,0.00,CLR,,0.01,WeatherDisplay:10.37,2013-12-02 18:30:00,
2013-12-02 12:35:00,63.0,53.8,29.48,North,358,6.7,6.9,72,0.00,CLR,,0.01,WeatherDisplay:10.37,2013-12-02 18:35:00,
2013-12-02 12:40:00,63.3,54.1,29.47,North,358,6.7,6.9,72,0.00,CLR,,0.01,WeatherDisplay:10.37,2013-12-02 18:40:00,
2013-12-02 12:45:00,63.5,54.3,29.47,North,358,6.7,6.9,72,0.00,CLR,,0.01,WeatherDisplay:10.37,2013-12-02 18:45:00,
2013-12-02 12:50:00,63.9,53.9,29.46,North,358,6.7,6.9,70,0.00,CLR,,0.01,WeatherDisplay:10.37,2013-12-02 18:50:00,
2013-12-02 12:55:00,64.2,53.8,29.46,North,358,6.7,6.9,69,0.00,CLR,,0.01,WeatherDisplay:10.37,2013-12-02 18:55:00,
2013-12-02 13:00:00,64.4,54.4,29.46,North,358,6.7,6.9,70,0.00,CLR,,0.01,WeatherDisplay:10.37,2013-12-02 19:00:00,
2013-12-02 13:05:00,64.6,54.2,29.46,North,358,6.7,6.9,69,0.00,CLR,,0.01,WeatherDisplay:10.37,2013-12-02 19:05:00,
2013-12-02 13:10:00,64.9,53.3,29.46,North,358,6.7,6.9,66,0.00,CLR,,0.01,WeatherDisplay:10.37,2013-12-02 19:10:00,
2013-12-02 13:15:00,65.1,53.1,29.46,North,358,6.7,6.9,65,0.00,CLR,,0.01,WeatherDisplay:10.37,2013-12-02 19:15:00,
2013-12-02 13:20:00,65.5,53.4,29.46,North,358,6.7,6.9,65,0.00,CLR,,0.01,WeatherDisplay:10.37,2013-12-02 19:20:00,
2013-12-02 13:25:00,65.8,53.7,29.45,North,358,6.7,6.9,65,0.00,CLR,,0.01,WeatherDisplay:10.37,2013-12-02 19:25:00,
2013-12-02 13:30:00,66.0,53.5,29.45,North,358,6.7,6.9,64,0.00,CLR,,0.01,WeatherDisplay:10.37,2013-12-02 19:30:00,
2013-12-02 13:35:00,66.4,53.8,29.45,North,358,6.7,6.9,64,0.00,CLR,,0.01,WeatherDisplay:10.37,2013-12-02 19:35:00,
2013-12-02 13:41:00,66.6,53.6,29.45,North,358,6.7,6.9,63,0.00,CLR,,0.01,WeatherDisplay:10.37,2013-12-02 19:41:00,
2013-12-02 13:46:00,66.7,52.4,29.44,North,358,6.7,6.9,60,0.00,CLR,,0.01,WeatherDisplay:10.37,2013-12-02 19:46:00,
2013-12-02 13:51:00,66.9,52.6,29.43,North,358,6.7,6.9,60,0.00,CLR,,0.01,WeatherDisplay:10.37,2013-12-02 19:51:00,
2013-12-02 13:56:00,67.1,52.7,29.43,North,358,6.7,6.9,60,0.00,CLR,,0.01,WeatherDisplay:10.37,2013-12-02 19:56:00,
2013-12-02 14:01:00,67.1,53.2,29.43,North,358,6.7,6.9,61,0.00,CLR,,0.01,WeatherDisplay:10.37,2013-12-02 20:01:00,
2013-12-02 14:06:00,67.3,52.5,29.43,North,358,6.7,6.9,59,0.00,CLR,,0.01,WeatherDisplay:10.37,2013-12-02 20:06:00,
2013-12-02 14:11:00,67.3,52.5,29.43,North,358,6.7,6.9,59,0.00,CLR,,0.01,WeatherDisplay:10.37,2013-12-02 20:11:00,
2013-12-02 14:16:00,67.6,52.8,29.42,North,358,6.7,6.9,59,0.00,CLR,,0.01,WeatherDisplay:10.37,2013-12-02 20:16:00,
2013-12-02 14:21:00,67.6,52.3,29.42,North,358,6.7,6.9,58,0.00,CLR,,0.01,WeatherDisplay:10.37,2013-12-02 20:21:00,
2013-12-02 14:26:00,67.6,52.3,29.42,North,358,6.7,6.9,58,0.00,CLR,,0.01,WeatherDisplay:10.37,2013-12-02 20:26:00,
2013-12-02 14:31:00,67.8,53.0,29.43,North,358,6.7,6.9,59,0.00,CLR,,0.01,WeatherDisplay:10.37,2013-12-02 20:31:00,
2013-12-02 14:36:00,68.0,53.1,29.43,North,358,6.7,6.9,59,0.00,CLR,,0.01,WeatherDisplay:10.37,2013-12-02 20:36:00,
2013-12-02 14:41:00,68.2,52.8,29.42,North,358,6.7,6.9,58,0.00,CLR,,0.01,WeatherDisplay:10.37,2013-12-02 20:41:00,
2013-12-02 14:46:00,68.4,53.0,29.43,North,358,6.7,6.9,58,0.00,CLR,,0.01,WeatherDisplay:10.37,2013-12-02 20:46:00,
2013-12-02 14:51:00,68.5,52.7,29.43,North,358,6.7,6.9,57,0.00,CLR,,0.01,WeatherDisplay:10.37,2013-12-02 20:51:00,
2013-12-02 14:56:00,68.5,52.7,29.43,North,358,6.7,6.9,57,0.00,CLR,,0.01,WeatherDisplay:10.37,2013-12-02 20:56:00,
2013-12-02 15:01:00,68.7,52.4,29.43,North,358,6.7,6.9,56,0.00,CLR,,0.01,WeatherDisplay:10.37,2013-12-02 21:01:00,
2013-12-02 15:06:00,69.1,52.7,29.42,North,358,6.7,6.9,56,0.00,CLR,,0.01,WeatherDisplay:10.37,2013-12-02 21:06:00,
2013-12-02 15:11:00,69.4,53.5,29.42,North,358,6.7,6.9,57,0.00,CLR,,0.01,WeatherDisplay:10.37,2013-12-02 21:11:00,
2013-12-02 15:16:00,69.4,52.6,29.42,North,358,6.7,6.9,55,0.00,CLR,,0.01,WeatherDisplay:10.37,2013-12-02 21:16:00,
2013-12-02 15:21:00,69.6,52.7,29.41,North,358,6.7,6.9,55,0.00,CLR,,0.01,WeatherDisplay:10.37,2013-12-02 21:21:00,
2013-12-02 15:26:00,69.8,52.9,29.42,North,358,6.7,6.9,55,0.00,CLR,,0.01,WeatherDisplay:10.37,2013-12-02 21:26:00,
2013-12-02 15:31:00,70.2,53.2,29.42,North,358,6.7,6.9,55,0.00,CLR,,0.01,WeatherDisplay:10.37,2013-12-02 21:31:00,
2013-12-02 15:36:00,70.2,53.2,29.41,North,358,6.7,6.9,55,0.00,CLR,,0.01,WeatherDisplay:10.37,2013-12-02 21:36:00,
2013-12-02 15:41:00,70.2,53.2,29.41,North,358,6.7,6.9,55,0.00,CLR,,0.01,WeatherDisplay:10.37,2013-12-02 21:41:00,
2013-12-02 15:46:00,70.3,53.4,29.41,North,358,6.7,6.9,55,0.00,CLR,,0.01,WeatherDisplay:10.37,2013-12-02 21:46:00,
2013-12-02 15:51:00,70.2,52.7,29.41,North,358,6.7,6.9,54,0.00,CLR,,0.01,WeatherDisplay:10.37,2013-12-02 21:51:00,
2013-12-02 15:56:00,70.0,52.1,29.41,North,358,6.7,6.9,53,0.00,CLR,,0.01,WeatherDisplay:10.37,2013-12-02 21:56:00,
2013-12-02 16:01:00,69.6,51.2,29.41,North,358,6.7,6.9,52,0.00,CLR,,0.01,WeatherDisplay:10.37,2013-12-02 22:01:00,
2013-12-02 16:06:00,69.4,51.6,29.41,North,358,6.7,6.9,53,0.00,CLR,,0.01,WeatherDisplay:10.37,2013-12-02 22:06:00,
2013-12-02 16:11:00,69.4,51.6,29.42,North,358,6.7,6.9,53,0.00,CLR,,0.01,WeatherDisplay:10.37,2013-12-02 22:11:00,
2013-12-02 16:16:00,69.3,51.9,29.42,North,358,6.7,6.9,54,0.00,CLR,,0.01,WeatherDisplay:10.37,2013-12-02 22:16:00,
2013-12-02 16:21:00,69.4,52.1,29.43,North,358,6.7,6.9,54,0.00,CLR,,0.01,WeatherDisplay:10.37,2013-12-02 22:21:00,
2013-12-02 16:26:00,69.1,51.2,29.42,North,358,6.7,6.9,53,0.00,CLR,,0.01,WeatherDisplay:10.37,2013-12-02 22:26:00,
2013-12-02 16:31:00,68.9,51.1,29.42,North,358,6.7,6.9,53,0.00,CLR,,0.01,WeatherDisplay:10.37,2013-12-02 22:31:00,
2013-12-02 16:36:00,68.5,50.7,29.42,North,358,6.7,6.9,53,0.00,CLR,,0.01,WeatherDisplay:10.37,2013-12-02 22:36:00,
2013-12-02 16:41:00,68.2,50.9,29.42,North,358,6.7,6.9,54,0.00,CLR,,0.01,WeatherDisplay:10.37,2013-12-02 22:41:00,
2013-12-02 16:46:00,67.8,51.1,29.42,North,358,6.7,6.9,55,0.00,CLR,,0.01,WeatherDisplay:10.37,2013-12-02 22:46:00,
2013-12-02 16:51:00,67.6,51.4,29.42,North,358,6.7,6.9,56,0.00,CLR,,0.01,WeatherDisplay:10.37,2013-12-02 22:51:00,
2013-12-02 16:56:00,67.3,51.5,29.42,North,358,6.7,6.9,57,0.00,CLR,,0.01,WeatherDisplay:10.37,2013-12-02 22:56:00,
2013-12-02 17:01:00,66.9,51.2,29.43,North,358,6.7,6.9,57,0.00,CLR,,0.01,WeatherDisplay:10.37,2013-12-02 23:01:00,
2013-12-02 17:06:00,66.9,51.7,29.43,North,358,6.7,6.9,58,0.00,CLR,,0.01,WeatherDisplay:10.37,2013-12-02 23:06:00,
2013-12-02 17:11:00,66.7,51.5,29.43,North,358,6.7,6.9,58,0.00,CLR,,0.01,WeatherDisplay:10.37,2013-12-02 23:11:00,
2013-12-02 17:16:00,66.4,51.6,29.42,North,358,6.7,6.9,59,0.00,CLR,,0.01,WeatherDisplay:10.37,2013-12-02 23:16:00,
2013-12-02 17:21:00,66.0,51.3,29.43,North,358,6.7,6.9,59,0.00,CLR,,0.01,WeatherDisplay:10.37,2013-12-02 23:21:00,
2013-12-02 17:26:00,65.8,51.6,29.44,North,358,6.7,6.9,60,0.00,CLR,,0.01,WeatherDisplay:10.37,2013-12-02 23:26:00,
2013-12-02 17:31:00,65.5,51.2,29.44,North,358,6.7,6.9,60,0.00,CLR,,0.01,WeatherDisplay:10.37,2013-12-02 23:31:00,
2013-12-02 17:36:00,65.1,50.9,29.44,North,358,6.7,6.9,60,0.00,CLR,,0.01,WeatherDisplay:10.37,2013-12-02 23:36:00,
2013-12-02 17:41:00,64.9,51.2,29.44,North,358,6.7,6.9,61,0.00,CLR,,0.01,WeatherDisplay:10.37,2013-12-02 23:41:00,
2013-12-02 17:46:00,64.6,50.8,29.44,North,358,6.7,6.9,61,0.00,CLR,,0.01,WeatherDisplay:10.37,2013-12-02 23:46:00,
2013-12-02 17:51:00,64.4,50.7,29.44,North,358,6.7,6.9,61,0.00,CLR,,0.01,WeatherDisplay:10.37,2013-12-02 23:51:00,
2013-12-02 17:56:00,64.0,50.3,29.44,North,358,6.7,6.9,61,0.00,CLR,,0.01,WeatherDisplay:10.37,2013-12-02 23:56:00,
2013-12-02 18:01:00,63.7,50.4,29.44,North,358,6.7,6.9,62,0.00,CLR,,0.01,WeatherDisplay:10.37,2013-12-03 00:01:00,
2013-12-02 18:06:00,63.1,49.9,29.44,North,358,6.7,6.9,62,0.00,CLR,,0.01,WeatherDisplay:10.37,2013-12-03 00:06:00,
2013-12-02 18:11:00,62.4,49.7,29.44,North,358,6.7,6.9,63,0.00,CLR,,0.01,WeatherDisplay:10.37,2013-12-03 00:11:00,
2013-12-02 18:16:00,61.9,49.6,29.44,North,358,6.7,6.9,64,0.00,CLR,,0.01,WeatherDisplay:10.37,2013-12-03 00:16:00,
2013-12-02 18:21:00,61.7,49.8,29.44,North,358,6.7,6.9,65,0.00,CLR,,0.01,WeatherDisplay:10.37,2013-12-03 00:21:00,
2013-12-02 18:26:00,61.5,49.6,29.44,North,358,6.7,6.9,65,0.00,CLR,,0.01,WeatherDisplay:10.37,2013-12-03 00:26:00,
2013-12-02 18:31:00,61.5,49.6,29.44,North,358,6.7,6.9,65,0.00,CLR,,0.01,WeatherDisplay:10.37,2013-12-03 00:31:00,
2013-12-02 18:36:00,61.2,49.3,29.44,North,358,6.7,6.9,65,0.00,CLR,,0.01,WeatherDisplay:10.37,2013-12-03 00:36:00,
2013-12-02 18:41:00,60.8,49.0,29.44,North,358,6.7,6.9,65,0.00,CLR,,0.01,WeatherDisplay:10.37,2013-12-03 00:41:00,
2013-12-02 18:46:00,60.6,48.8,29.44,North,358,6.7,6.9,65,0.00,CLR,,0.01,WeatherDisplay:10.37,2013-12-03 00:46:00,
2013-12-02 18:51:00,60.3,48.4,29.45,North,358,6.7,6.9,65,0.00,CLR,,0.01,WeatherDisplay:10.37,2013-12-03 00:51:00,
2013-12-02 18:56:00,60.1,48.3,29.44,North,358,6.7,6.9,65,0.00,CLR,,0.01,WeatherDisplay:10.37,2013-12-03 00:56:00,
2013-12-02 19:01:00,59.9,48.1,29.44,North,358,6.7,6.9,65,0.00,CLR,,0.01,WeatherDisplay:10.37,2013-12-03 01:01:00,
2013-12-02 19:06:00,59.7,47.9,29.44,North,358,6.7,6.9,65,0.00,CLR,,0.01,WeatherDisplay:10.37,2013-12-03 01:06:00,
2013-12-02 19:11:00,59.5,47.8,29.44,North,358,6.7,6.9,65,0.00,CLR,,0.01,WeatherDisplay:10.37,2013-12-03 01:11:00,
2013-12-02 19:16:00,59.4,47.6,29.44,North,358,6.7,6.9,65,0.00,CLR,,0.01,WeatherDisplay:10.37,2013-12-03 01:16:00,
2013-12-02 19:22:00,59.4,48.0,29.44,North,358,6.7,6.9,66,0.00,CLR,,0.01,WeatherDisplay:10.37,2013-12-03 01:22:00,
2013-12-02 19:27:00,59.0,47.7,29.44,North,358,6.7,6.9,66,0.00,CLR,,0.01,WeatherDisplay:10.37,2013-12-03 01:27:00,
2013-12-02 19:32:00,58.8,47.5,29.44,North,358,6.7,6.9,66,0.00,CLR,,0.01,WeatherDisplay:10.37,2013-12-03 01:32:00,
2013-12-02 19:37:00,58.5,47.5,29.44,North,358,6.7,6.9,67,0.00,CLR,,0.01,WeatherDisplay:10.37,2013-12-03 01:37:00,
2013-12-02 19:42:00,57.9,47.0,29.44,North,358,6.7,6.9,67,0.00,CLR,,0.01,WeatherDisplay:10.37,2013-12-03 01:42:00,
2013-12-02 19:47:00,57.7,47.2,29.45,North,358,6.7,6.9,68,0.00,CLR,,0.01,WeatherDisplay:10.37,2013-12-03 01:47:00,
2013-12-02 19:52:00,57.4,47.3,29.45,North,358,6.7,6.9,69,0.00,CLR,,0.01,WeatherDisplay:10.37,2013-12-03 01:52:00,
2013-12-02 19:57:00,57.2,47.5,29.45,North,358,6.7,6.9,70,0.00,CLR,,0.01,WeatherDisplay:10.37,2013-12-03 01:57:00,
2013-12-02 20:02:00,57.0,47.3,29.44,North,358,6.7,6.9,70,0.00,CLR,,0.01,WeatherDisplay:10.37,2013-12-03 02:02:00,
2013-12-02 20:07:00,56.8,47.5,29.44,North,358,6.7,6.9,71,0.00,CLR,,0.01,WeatherDisplay:10.37,2013-12-03 02:07:00,
2013-12-02 20:12:00,56.8,47.5,29.44,North,358,6.7,6.9,71,0.00,CLR,,0.01,WeatherDisplay:10.37,2013-12-03 02:12:00,
2013-12-02 20:17:00,56.7,47.4,29.44,North,358,6.7,6.9,71,0.00,CLR,,0.01,WeatherDisplay:10.37,2013-12-03 02:17:00,
2013-12-02 20:22:00,56.7,47.4,29.44,North,358,6.7,6.9,71,0.00,CLR,,0.01,WeatherDisplay:10.37,2013-12-03 02:22:00,
2013-12-02 20:27:00,56.5,47.2,29.44,North,358,6.7,6.9,71,0.00,CLR,,0.01,WeatherDisplay:10.37,2013-12-03 02:27:00,
2013-12-02 20:32:00,56.5,47.2,29.43,North,358,6.7,6.9,71,0.00,CLR,,0.01,WeatherDisplay:10.37,2013-12-03 02:32:00,
2013-12-02 20:37:00,56.5,47.2,29.43,North,358,6.7,6.9,71,0.00,CLR,,0.01,WeatherDisplay:10.37,2013-12-03 02:37:00,
2013-12-02 20:42:00,56.3,47.4,29.43,North,358,6.7,6.9,72,0.00,CLR,,0.01,WeatherDisplay:10.37,2013-12-03 02:42:00,
2013-12-02 20:47:00,56.1,47.6,29.43,North,358,6.7,6.9,73,0.00,CLR,,0.01,WeatherDisplay:10.37,2013-12-03 02:47:00,
2013-12-02 20:52:00,55.9,47.4,29.43,North,358,6.7,6.9,73,0.00,CLR,,0.01,WeatherDisplay:10.37,2013-12-03 02:52:00,
2013-12-02 20:57:00,55.8,47.6,29.43,North,358,6.7,6.9,74,0.00,CLR,,0.01,WeatherDisplay:10.37,2013-12-03 02:57:00,
2013-12-02 21:02:00,55.8,47.6,29.43,North,358,6.7,6.9,74,0.00,CLR,,0.01,WeatherDisplay:10.37,2013-12-03 03:02:00,
2013-12-02 21:07:00,55.8,47.6,29.43,North,358,6.7,6.9,74,0.00,CLR,,0.01,WeatherDisplay:10.37,2013-12-03 03:07:00,
2013-12-02 21:12:00,55.8,47.6,29.44,North,358,6.7,6.9,74,0.00,CLR,,0.01,WeatherDisplay:10.37,2013-12-03 03:12:00,
2013-12-02 21:17:00,55.4,47.2,29.44,North,358,6.7,6.9,74,0.00,CLR,,0.01,WeatherDisplay:10.37,2013-12-03 03:17:00,
2013-12-02 21:22:00,54.9,47.1,29.44,North,358,6.7,6.9,75,0.00,CLR,,0.01,WeatherDisplay:10.37,2013-12-03 03:22:00,
2013-12-02 21:27:00,54.3,46.6,29.43,North,358,6.7,6.9,75,0.00,CLR,,0.01,WeatherDisplay:10.37,2013-12-03 03:27:00,
2013-12-02 21:32:00,54.0,46.2,29.43,North,358,6.7,6.9,75,0.00,CLR,,0.01,WeatherDisplay:10.37,2013-12-03 03:32:00,
2013-12-02 21:37:00,53.6,45.9,29.43,North,358,6.7,6.9,75,0.00,CLR,,0.01,WeatherDisplay:10.37,2013-12-03 03:37:00,
2013-12-02 21:42:00,53.4,45.7,29.43,North,358,6.7,6.9,75,0.00,CLR,,0.01,WeatherDisplay:10.37,2013-12-03 03:42:00,
2013-12-02 21:47:00,53.2,45.5,29.42,North,358,6.7,6.9,75,0.00,CLR,,0.01,WeatherDisplay:10.37,2013-12-03 03:47:00,
2013-12-02 21:52:00,53.1,45.3,29.42,North,358,6.7,6.9,75,0.00,CLR,,0.01,WeatherDisplay:10.37,2013-12-03 03:52:00,
2013-12-02 21:57:00,52.9,45.2,29.43,North,358,6.7,6.9,75,0.00,CLR,,0.01,WeatherDisplay:10.37,2013-12-03 03:57:00,
2013-12-02 22:02:00,52.9,45.2,29.43,North,358,6.7,6.9,75,0.00,,,0.01,WeatherDisplay:10.37,2013-12-03 04:02:00,
2013-12-02 22:07:00,52.7,45.0,29.43,North,358,6.7,6.9,75,0.00,,,0.01,WeatherDisplay:10.37,2013-12-03 04:07:00,
2013-12-02 22:12:00,52.5,44.8,29.43,North,358,6.7,6.9,75,0.00,,,0.01,WeatherDisplay:10.37,2013-12-03 04:12:00,
2013-12-02 22:17:00,52.3,44.6,29.43,North,358,6.7,6.9,75,0.00,,,0.01,WeatherDisplay:10.37,2013-12-03 04:17:00,
2013-12-02 22:22:00,52.3,45.0,29.42,North,358,6.7,6.9,76,0.00,,,0.01,WeatherDisplay:10.37,2013-12-03 04:22:00,
2013-12-02 22:27:00,52.3,45.0,29.42,North,358,6.7,6.9,76,0.00,,,0.01,WeatherDisplay:10.37,2013-12-03 04:27:00,
2013-12-02 22:32:00,52.3,45.0,29.42,North,358,6.7,6.9,76,0.00,,,0.01,WeatherDisplay:10.37,2013-12-03 04:32:00,
2013-12-02 22:37:00,52.3,45.0,29.43,North,358,6.7,6.9,76,0.00,,,0.01,WeatherDisplay:10.37,2013-12-03 04:37:00,
2013-12-02 22:42:00,52.2,44.8,29.43,North,358,6.7,6.9,76,0.00,,,0.01,WeatherDisplay:10.37,2013-12-03 04:42:00,
2013-12-02 22:47:00,52.0,45.0,29.43,North,358,6.7,6.9,77,0.00,,,0.01,WeatherDisplay:10.37,2013-12-03 04:47:00,
2013-12-02 22:52:00,51.6,45.0,29.43,North,358,6.7,6.9,78,0.00,,,0.01,WeatherDisplay:10.37,2013-12-03 04:52:00,
2013-12-02 22:57:00,51.4,44.8,29.43,North,358,6.7,6.9,78,0.00,,,0.01,WeatherDisplay:10.37,2013-12-03 04:57:00,
2013-12-02 23:01:00,51.4,44.8,29.43,North,358,6.7,6.9,78,0.00,BKN,,0.01,WeatherDisplay:10.37,2013-12-03 05:01:00,
2013-12-02 23:02:00,51.4,44.8,29.43,North,358,6.7,6.9,78,0.00,BKN,,0.01,WeatherDisplay:10.37,2013-12-03 05:02:00,
2013-12-02 23:04:00,51.4,44.8,29.42,North,358,6.7,6.9,78,0.00,BKN,,0.01,WeatherDisplay:10.37,2013-12-03 05:04:00,
2013-12-02 23:09:00,51.4,44.8,29.42,North,358,6.7,6.9,78,0.00,BKN,,0.01,WeatherDisplay:10.37,2013-12-03 05:09:00,
2013-12-02 23:14:00,51.4,44.8,29.42,North,358,6.7,6.9,78,0.00,BKN,,0.01,WeatherDisplay:10.37,2013-12-03 05:14:00,
2013-12-02 23:19:00,51.1,44.5,29.42,North,358,6.7,6.9,78,0.00,BKN,,0.01,WeatherDisplay:10.37,2013-12-03 05:19:00,
2013-12-02 23:24:00,51.1,44.8,29.42,North,358,6.7,6.9,79,0.00,BKN,,0.01,WeatherDisplay:10.37,2013-12-03 05:24:00,
2013-12-02 23:29:00,50.9,44.6,29.42,North,358,6.7,6.9,79,0.00,BKN,,0.01,WeatherDisplay:10.37,2013-12-03 05:29:00,
2013-12-02 23:34:00,50.9,44.6,29.42,North,358,6.7,6.9,79,0.00,BKN,,0.01,WeatherDisplay:10.37,2013-12-03 05:34:00,
2013-12-02 23:39:00,50.9,44.6,29.42,North,358,6.7,6.9,79,0.00,BKN,,0.01,WeatherDisplay:10.37,2013-12-03 05:39:00,
2013-12-02 23:44:00,50.9,44.6,29.42,North,358,6.7,6.9,79,0.00,BKN,,0.01,WeatherDisplay:10.37,2013-12-03 05:44:00,
2013-12-02 23:49:00,50.7,44.4,29.42,North,358,6.7,6.9,79,0.00,BKN,,0.01,WeatherDisplay:10.37,2013-12-03 05:49:00,
2013-12-02 23:54:00,50.5,43.9,29.42,North,358,6.7,6.9,78,0.00,BKN,,0.01,WeatherDisplay:10.37,2013-12-03 05:54:00,
2013-12-02 23:59:00,49.8,43.6,29.42,North,358,6.7,6.9,79,0.00,BKN,,0.01,WeatherDisplay:10.37,2013-12-03 05:59:00,